Alytus, Lithuania
Current Conditions -  °F | °C
As of 1:50 PM on Tuesday 21 Oct 2014 (Local Time) from EYKA Reporting Station
Overcast Overcast  
Wind Chill: 54°   Ceiling: 1700
Heat Index: 54°   Visibility: 6mi
Dew Point: 46°   Wind: 3mph
Humidity: 77%   Direction: 360°N
Pressure: 29.65"   Gusts: NA
Location:  54.39°N, 24.05°E
Report Text: EYKA 211050Z 36003KT 300V080 9999 BKN017 OVC034 12/08 Q1004
Loading
Personal Weather Stations






























Interactive Weather Map
Tropical Storm Tracking
New forecast layout! Learn more

10-Day Weather Forecast

Advertisements
Track Severe Weather on mobile